sensor_id;sensor_type;location;lat;lon;timestamp;P1;durP1;ratioP1;P2;durP2;ratioP2
37983;SDS011;64625;50.882;4.376;2023-06-22T00:01:15;9.93;;;3.40;;
37983;SDS011;64625;50.882;4.376;2023-06-22T00:03:41;8.23;;;3.30;;
37983;SDS011;64625;50.882;4.376;2023-06-22T00:06:07;8.20;;;3.72;;
37983;SDS011;64625;50.882;4.376;2023-06-22T00:08:33;9.70;;;4.85;;
37983;SDS011;64625;50.882;4.376;2023-06-22T00:10:58;5.18;;;3.40;;
37983;SDS011;64625;50.882;4.376;2023-06-22T00:13:24;9.35;;;4.13;;
37983;SDS011;64625;50.882;4.376;2023-06-22T00:15:50;9.65;;;3.55;;
37983;SDS011;64625;50.882;4.376;2023-06-22T00:18:16;13.95;;;3.55;;
37983;SDS011;64625;50.882;4.376;2023-06-22T00:20:42;3.33;;;2.58;;
37983;SDS011;64625;50.882;4.376;2023-06-22T00:23:08;6.50;;;3.58;;
37983;SDS011;64625;50.882;4.376;2023-06-22T00:25:34;7.50;;;4.22;;
37983;SDS011;64625;50.882;4.376;2023-06-22T00:28:00;9.15;;;3.72;;
37983;SDS011;64625;50.882;4.376;2023-06-22T00:30:27;13.93;;;4.15;;
37983;SDS011;64625;50.882;4.376;2023-06-22T00:32:53;10.77;;;4.90;;
37983;SDS011;64625;50.882;4.376;2023-06-22T00:35:18;7.45;;;4.38;;
37983;SDS011;64625;50.882;4.376;2023-06-22T00:37:45;13.80;;;4.47;;
37983;SDS011;64625;50.882;4.376;2023-06-22T00:40:11;8.30;;;5.45;;
37983;SDS011;64625;50.882;4.376;2023-06-22T00:42:39;4.95;;;4.03;;
37983;SDS011;64625;50.882;4.376;2023-06-22T00:45:06;8.25;;;4.15;;
37983;SDS011;64625;50.882;4.376;2023-06-22T00:47:36;7.28;;;4.97;;
37983;SDS011;64625;50.882;4.376;2023-06-22T00:50:03;10.73;;;4.55;;
37983;SDS011;64625;50.882;4.376;2023-06-22T00:52:33;14.77;;;6.30;;
37983;SDS011;64625;50.882;4.376;2023-06-22T00:55:00;14.02;;;4.47;;
37983;SDS011;64625;50.882;4.376;2023-06-22T00:57:27;8.02;;;4.68;;
37983;SDS011;64625;50.882;4.376;2023-06-22T00:59:54;9.52;;;5.05;;
37983;SDS011;64625;50.882;4.376;2023-06-22T01:02:20;10.75;;;4.15;;
37983;SDS011;64625;50.882;4.376;2023-06-22T01:04:46;3.97;;;3.30;;
37983;SDS011;64625;50.882;4.376;2023-06-22T01:10:06;10.15;;;3.20;;
37983;SDS011;64625;50.882;4.376;2023-06-22T01:12:38;6.68;;;3.83;;
37983;SDS011;64625;50.882;4.376;2023-06-22T01:15:31;8.10;;;4.05;;
37983;SDS011;64625;50.882;4.376;2023-06-22T01:17:56;8.65;;;3.90;;
37983;SDS011;64625;50.882;4.376;2023-06-22T01:20:23;8.50;;;3.20;;
37983;SDS011;64625;50.882;4.376;2023-06-22T01:28:23;10.35;;;3.45;;
37983;SDS011;64625;50.882;4.376;2023-06-22T01:31:23;6.40;;;3.85;;
37983;SDS011;64625;50.882;4.376;2023-06-22T01:33:54;9.90;;;3.92;;
37983;SDS011;64625;50.882;4.376;2023-06-22T01:36:23;7.70;;;3.53;;
37983;SDS011;64625;50.882;4.376;2023-06-22T01:38:50;8.82;;;3.42;;
37983;SDS011;64625;50.882;4.376;2023-06-22T01:41:19;18.17;;;4.10;;
37983;SDS011;64625;50.882;4.376;2023-06-22T01:43:46;4.05;;;2.92;;
37983;SDS011;64625;50.882;4.376;2023-06-22T01:46:13;4.50;;;3.13;;
37983;SDS011;64625;50.882;4.376;2023-06-22T01:48:40;4.72;;;3.50;;
37983;SDS011;64625;50.882;4.376;2023-06-22T01:51:06;5.78;;;3.22;;
37983;SDS011;64625;50.882;4.376;2023-06-22T01:53:32;8.50;;;3.13;;
37983;SDS011;64625;50.882;4.376;2023-06-22T01:55:58;6.38;;;3.33;;
37983;SDS011;64625;50.882;4.376;2023-06-22T01:58:25;12.40;;;3.15;;
37983;SDS011;64625;50.882;4.376;2023-06-22T02:00:55;4.18;;;2.72;;
37983;SDS011;64625;50.882;4.376;2023-06-22T02:03:29;7.45;;;4.63;;
37983;SDS011;64625;50.882;4.376;2023-06-22T02:06:00;6.88;;;4.00;;
37983;SDS011;64625;50.882;4.376;2023-06-22T02:08:30;6.43;;;4.38;;
37983;SDS011;64625;50.882;4.376;2023-06-22T02:11:01;6.10;;;4.50;;
37983;SDS011;64625;50.882;4.376;2023-06-22T02:13:28;11.27;;;5.57;;
37983;SDS011;64625;50.882;4.376;2023-06-22T02:16:00;8.27;;;4.63;;
37983;SDS011;64625;50.882;4.376;2023-06-22T02:18:27;7.22;;;4.47;;
37983;SDS011;64625;50.882;4.376;2023-06-22T02:20:53;8.73;;;5.07;;
37983;SDS011;64625;50.882;4.376;2023-06-22T02:23:19;7.65;;;4.38;;
37983;SDS011;64625;50.882;4.376;2023-06-22T02:25:44;10.60;;;5.60;;
37983;SDS011;64625;50.882;4.376;2023-06-22T02:28:10;8.70;;;5.28;;
37983;SDS011;64625;50.882;4.376;2023-06-22T02:30:36;12.45;;;4.18;;
37983;SDS011;64625;50.882;4.376;2023-06-22T02:33:02;6.78;;;4.07;;
37983;SDS011;64625;50.882;4.376;2023-06-22T02:35:29;11.40;;;3.95;;
37983;SDS011;64625;50.882;4.376;2023-06-22T02:38:01;5.80;;;4.05;;
37983;SDS011;64625;50.882;4.376;2023-06-22T02:40:28;11.50;;;5.50;;
37983;SDS011;64625;50.882;4.376;2023-06-22T02:42:55;9.02;;;5.32;;
37983;SDS011;64625;50.882;4.376;2023-06-22T02:45:26;8.05;;;4.72;;
37983;SDS011;64625;50.882;4.376;2023-06-22T02:47:51;8.15;;;5.18;;
37983;SDS011;64625;50.882;4.376;2023-06-22T02:50:17;14.65;;;5.30;;
37983;SDS011;64625;50.882;4.376;2023-06-22T02:52:43;10.52;;;5.82;;
37983;SDS011;64625;50.882;4.376;2023-06-22T02:55:09;7.32;;;5.10;;
37983;SDS011;64625;50.882;4.376;2023-06-22T02:57:35;12.07;;;5.30;;
37983;SDS011;64625;50.882;4.376;2023-06-22T03:00:02;12.40;;;5.90;;
37983;SDS011;64625;50.882;4.376;2023-06-22T03:02:45;10.32;;;5.18;;
37983;SDS011;64625;50.882;4.376;2023-06-22T03:05:13;12.30;;;5.95;;
37983;SDS011;64625;50.882;4.376;2023-06-22T03:07:40;15.50;;;5.30;;
37983;SDS011;64625;50.882;4.376;2023-06-22T03:10:10;12.05;;;5.40;;
37983;SDS011;64625;50.882;4.376;2023-06-22T03:12:38;19.30;;;5.57;;
37983;SDS011;64625;50.882;4.376;2023-06-22T03:15:07;11.35;;;6.13;;
37983;SDS011;64625;50.882;4.376;2023-06-22T03:17:35;11.98;;;6.32;;
37983;SDS011;64625;50.882;4.376;2023-06-22T03:20:03;10.15;;;5.95;;
37983;SDS011;64625;50.882;4.376;2023-06-22T03:22:41;11.65;;;5.93;;
37983;SDS011;64625;50.882;4.376;2023-06-22T03:25:08;17.75;;;6.03;;
37983;SDS011;64625;50.882;4.376;2023-06-22T03:27:43;8.88;;;5.68;;
37983;SDS011;64625;50.882;4.376;2023-06-22T03:30:09;16.73;;;6.43;;
37983;SDS011;64625;50.882;4.376;2023-06-22T03:32:36;11.63;;;6.07;;
37983;SDS011;64625;50.882;4.376;2023-06-22T03:35:02;15.02;;;6.30;;
37983;SDS011;64625;50.882;4.376;2023-06-22T03:37:28;14.88;;;6.13;;
37983;SDS011;64625;50.882;4.376;2023-06-22T03:39:55;13.63;;;6.03;;
37983;SDS011;64625;50.882;4.376;2023-06-22T03:42:21;13.15;;;6.88;;
37983;SDS011;64625;50.882;4.376;2023-06-22T03:44:46;15.68;;;6.28;;
37983;SDS011;64625;50.882;4.376;2023-06-22T03:47:12;10.55;;;6.65;;
37983;SDS011;64625;50.882;4.376;2023-06-22T03:49:38;9.57;;;6.22;;
37983;SDS011;64625;50.882;4.376;2023-06-22T03:52:05;10.95;;;7.32;;
37983;SDS011;64625;50.882;4.376;2023-06-22T03:54:32;11.82;;;6.95;;
37983;SDS011;64625;50.882;4.376;2023-06-22T03:56:58;11.95;;;6.97;;
37983;SDS011;64625;50.882;4.376;2023-06-22T03:59:24;9.68;;;6.28;;
37983;SDS011;64625;50.882;4.376;2023-06-22T04:01:49;17.50;;;7.28;;
37983;SDS011;64625;50.882;4.376;2023-06-22T04:04:16;19.23;;;6.88;;
37983;SDS011;64625;50.882;4.376;2023-06-22T04:06:44;15.70;;;7.53;;
37983;SDS011;64625;50.882;4.376;2023-06-22T04:09:10;14.30;;;7.03;;
37983;SDS011;64625;50.882;4.376;2023-06-22T04:11:36;15.68;;;6.07;;
37983;SDS011;64625;50.882;4.376;2023-06-22T04:14:02;11.77;;;6.57;;
37983;SDS011;64625;50.882;4.376;2023-06-22T04:16:28;19.95;;;8.23;;
37983;SDS011;64625;50.882;4.376;2023-06-22T04:18:54;26.33;;;7.97;;
37983;SDS011;64625;50.882;4.376;2023-06-22T04:21:20;14.35;;;7.10;;
37983;SDS011;64625;50.882;4.376;2023-06-22T04:23:46;18.50;;;8.07;;
37983;SDS011;64625;50.882;4.376;2023-06-22T04:26:12;19.20;;;8.00;;
37983;SDS011;64625;50.882;4.376;2023-06-22T04:28:39;15.27;;;9.32;;
37983;SDS011;64625;50.882;4.376;2023-06-22T04:31:05;21.25;;;9.05;;
37983;SDS011;64625;50.882;4.376;2023-06-22T04:33:31;25.35;;;8.60;;
37983;SDS011;64625;50.882;4.376;2023-06-22T04:35:58;27.98;;;10.50;;
37983;SDS011;64625;50.882;4.376;2023-06-22T04:38:26;21.70;;;9.68;;
37983;SDS011;64625;50.882;4.376;2023-06-22T04:40:52;18.13;;;8.48;;
37983;SDS011;64625;50.882;4.376;2023-06-22T04:43:18;14.40;;;10.35;;
37983;SDS011;64625;50.882;4.376;2023-06-22T04:45:45;13.40;;;9.50;;
37983;SDS011;64625;50.882;4.376;2023-06-22T04:48:10;22.95;;;10.48;;
37983;SDS011;64625;50.882;4.376;2023-06-22T04:50:41;19.40;;;10.90;;
37983;SDS011;64625;50.882;4.376;2023-06-22T04:53:07;17.30;;;10.15;;
37983;SDS011;64625;50.882;4.376;2023-06-22T04:55:35;16.10;;;7.07;;
37983;SDS011;64625;50.882;4.376;2023-06-22T04:58:03;15.88;;;9.35;;
37983;SDS011;64625;50.882;4.376;2023-06-22T05:00:29;14.70;;;8.52;;
37983;SDS011;64625;50.882;4.376;2023-06-22T05:02:56;19.88;;;6.55;;
37983;SDS011;64625;50.882;4.376;2023-06-22T05:05:23;13.68;;;6.88;;
37983;SDS011;64625;50.882;4.376;2023-06-22T05:07:50;13.73;;;8.10;;
37983;SDS011;64625;50.882;4.376;2023-06-22T05:10:18;24.48;;;6.95;;
37983;SDS011;64625;50.882;4.376;2023-06-22T05:12:45;13.75;;;6.20;;
37983;SDS011;64625;50.882;4.376;2023-06-22T05:15:11;14.48;;;6.18;;
37983;SDS011;64625;50.882;4.376;2023-06-22T05:17:38;17.27;;;5.85;;
37983;SDS011;64625;50.882;4.376;2023-06-22T05:20:10;12.27;;;5.70;;
37983;SDS011;64625;50.882;4.376;2023-06-22T05:22:37;10.90;;;6.75;;
37983;SDS011;64625;50.882;4.376;2023-06-22T05:25:07;25.50;;;9.57;;
37983;SDS011;64625;50.882;4.376;2023-06-22T05:27:35;25.75;;;8.90;;
37983;SDS011;64625;50.882;4.376;2023-06-22T05:30:06;16.67;;;8.82;;
37983;SDS011;64625;50.882;4.376;2023-06-22T05:32:32;27.42;;;8.38;;
37983;SDS011;64625;50.882;4.376;2023-06-22T05:34:58;28.80;;;7.60;;
37983;SDS011;64625;50.882;4.376;2023-06-22T05:37:25;17.67;;;7.20;;
37983;SDS011;64625;50.882;4.376;2023-06-22T05:39:51;19.75;;;7.00;;
37983;SDS011;64625;50.882;4.376;2023-06-22T05:42:18;18.45;;;8.35;;
37983;SDS011;64625;50.882;4.376;2023-06-22T05:44:44;13.10;;;8.10;;
37983;SDS011;64625;50.882;4.376;2023-06-22T05:47:11;22.73;;;9.75;;
37983;SDS011;64625;50.882;4.376;2023-06-22T05:49:37;22.30;;;11.82;;
37983;SDS011;64625;50.882;4.376;2023-06-22T05:52:03;20.30;;;11.98;;
37983;SDS011;64625;50.882;4.376;2023-06-22T05:54:29;25.15;;;12.70;;
37983;SDS011;64625;50.882;4.376;2023-06-22T05:56:55;24.80;;;11.90;;
37983;SDS011;64625;50.882;4.376;2023-06-22T05:59:21;30.02;;;14.02;;
37983;SDS011;64625;50.882;4.376;2023-06-22T06:01:47;27.67;;;13.90;;
37983;SDS011;64625;50.882;4.376;2023-06-22T06:04:19;23.85;;;12.25;;
37983;SDS011;64625;50.882;4.376;2023-06-22T06:06:45;30.05;;;13.98;;
37983;SDS011;64625;50.882;4.376;2023-06-22T06:09:13;26.17;;;13.35;;
37983;SDS011;64625;50.882;4.376;2023-06-22T06:11:39;23.77;;;12.98;;
37983;SDS011;64625;50.882;4.376;2023-06-22T06:14:05;23.80;;;13.27;;
37983;SDS011;64625;50.882;4.376;2023-06-22T06:16:32;19.88;;;13.48;;
37983;SDS011;64625;50.882;4.376;2023-06-22T06:18:58;25.98;;;13.48;;
37983;SDS011;64625;50.882;4.376;2023-06-22T06:21:24;21.00;;;12.43;;
37983;SDS011;64625;50.882;4.376;2023-06-22T06:23:49;30.25;;;14.13;;
37983;SDS011;64625;50.882;4.376;2023-06-22T06:26:15;21.05;;;13.18;;
37983;SDS011;64625;50.882;4.376;2023-06-22T06:28:45;26.45;;;13.20;;
37983;SDS011;64625;50.882;4.376;2023-06-22T06:31:11;24.35;;;15.23;;
37983;SDS011;64625;50.882;4.376;2023-06-22T06:33:42;24.75;;;13.43;;
37983;SDS011;64625;50.882;4.376;2023-06-22T06:36:09;29.40;;;14.02;;
37983;SDS011;64625;50.882;4.376;2023-06-22T06:38:35;33.55;;;12.98;;
37983;SDS011;64625;50.882;4.376;2023-06-22T06:41:04;25.83;;;14.63;;
37983;SDS011;64625;50.882;4.376;2023-06-22T06:43:30;28.05;;;14.20;;
37983;SDS011;64625;50.882;4.376;2023-06-22T06:45:55;35.55;;;14.77;;
37983;SDS011;64625;50.882;4.376;2023-06-22T06:48:21;29.38;;;14.10;;
37983;SDS011;64625;50.882;4.376;2023-06-22T06:50:47;37.63;;;14.95;;
37983;SDS011;64625;50.882;4.376;2023-06-22T06:53:13;27.42;;;16.85;;
37983;SDS011;64625;50.882;4.376;2023-06-22T06:55:39;26.40;;;15.88;;
37983;SDS011;64625;50.882;4.376;2023-06-22T06:58:04;25.25;;;14.32;;
37983;SDS011;64625;50.882;4.376;2023-06-22T07:00:33;27.85;;;15.43;;
37983;SDS011;64625;50.882;4.376;2023-06-22T07:02:59;26.65;;;15.15;;
37983;SDS011;64625;50.882;4.376;2023-06-22T07:05:24;26.95;;;15.82;;
37983;SDS011;64625;50.882;4.376;2023-06-22T07:07:50;29.80;;;16.33;;
37983;SDS011;64625;50.882;4.376;2023-06-22T07:10:16;26.58;;;14.82;;
37983;SDS011;64625;50.882;4.376;2023-06-22T07:12:42;19.13;;;13.35;;
37983;SDS011;64625;50.882;4.376;2023-06-22T07:15:08;24.75;;;14.80;;
37983;SDS011;64625;50.882;4.376;2023-06-22T07:17:35;32.58;;;14.55;;
37983;SDS011;64625;50.882;4.376;2023-06-22T07:20:02;21.40;;;14.20;;
37983;SDS011;64625;50.882;4.376;2023-06-22T07:22:35;28.67;;;15.38;;
37983;SDS011;64625;50.882;4.376;2023-06-22T07:25:01;28.75;;;14.90;;
37983;SDS011;64625;50.882;4.376;2023-06-22T07:27:56;25.27;;;15.57;;
37983;SDS011;64625;50.882;4.376;2023-06-22T07:30:27;22.52;;;14.88;;
37983;SDS011;64625;50.882;4.376;2023-06-22T07:32:53;35.08;;;16.05;;
37983;SDS011;64625;50.882;4.376;2023-06-22T07:35:19;23.35;;;15.68;;
37983;SDS011;64625;50.882;4.376;2023-06-22T07:37:51;23.98;;;14.93;;
37983;SDS011;64625;50.882;4.376;2023-06-22T07:40:17;19.27;;;14.05;;
37983;SDS011;64625;50.882;4.376;2023-06-22T07:42:43;22.73;;;13.63;;
37983;SDS011;64625;50.882;4.376;2023-06-22T07:45:09;30.15;;;14.82;;
37983;SDS011;64625;50.882;4.376;2023-06-22T07:47:35;28.67;;;16.30;;
37983;SDS011;64625;50.882;4.376;2023-06-22T07:50:01;28.10;;;14.90;;
37983;SDS011;64625;50.882;4.376;2023-06-22T07:52:28;21.02;;;13.43;;
37983;SDS011;64625;50.882;4.376;2023-06-22T07:54:56;26.90;;;13.65;;
37983;SDS011;64625;50.882;4.376;2023-06-22T07:57:21;30.15;;;14.15;;
37983;SDS011;64625;50.882;4.376;2023-06-22T07:59:47;22.80;;;13.00;;
37983;SDS011;64625;50.882;4.376;2023-06-22T08:02:13;18.17;;;11.82;;
37983;SDS011;64625;50.882;4.376;2023-06-22T08:04:39;25.50;;;12.50;;
37983;SDS011;64625;50.882;4.376;2023-06-22T08:07:06;17.25;;;13.70;;
37983;SDS011;64625;50.882;4.376;2023-06-22T08:09:32;21.83;;;12.52;;
37983;SDS011;64625;50.882;4.376;2023-06-22T08:11:58;24.35;;;14.70;;
37983;SDS011;64625;50.882;4.376;2023-06-22T08:14:25;24.00;;;12.93;;
37983;SDS011;64625;50.882;4.376;2023-06-22T08:16:52;16.70;;;12.93;;
37983;SDS011;64625;50.882;4.376;2023-06-22T08:19:18;25.77;;;14.43;;
37983;SDS011;64625;50.882;4.376;2023-06-22T08:21:44;20.65;;;13.52;;
37983;SDS011;64625;50.882;4.376;2023-06-22T08:24:10;26.25;;;14.00;;
37983;SDS011;64625;50.882;4.376;2023-06-22T08:26:36;18.88;;;13.60;;
37983;SDS011;64625;50.882;4.376;2023-06-22T08:29:03;20.80;;;14.55;;
37983;SDS011;64625;50.882;4.376;2023-06-22T08:31:29;29.33;;;15.88;;
37983;SDS011;64625;50.882;4.376;2023-06-22T08:33:56;25.63;;;16.25;;
37983;SDS011;64625;50.882;4.376;2023-06-22T08:36:22;21.42;;;13.60;;
37983;SDS011;64625;50.882;4.376;2023-06-22T08:38:48;21.20;;;13.52;;
37983;SDS011;64625;50.882;4.376;2023-06-22T08:41:16;18.08;;;13.77;;
37983;SDS011;64625;50.882;4.376;2023-06-22T08:43:43;26.20;;;13.90;;
37983;SDS011;64625;50.882;4.376;2023-06-22T08:46:09;23.65;;;13.48;;
37983;SDS011;64625;50.882;4.376;2023-06-22T08:48:39;21.45;;;13.52;;
37983;SDS011;64625;50.882;4.376;2023-06-22T08:51:04;21.15;;;14.82;;
37983;SDS011;64625;50.882;4.376;2023-06-22T08:53:30;15.40;;;13.10;;
37983;SDS011;64625;50.882;4.376;2023-06-22T08:55:56;20.88;;;13.48;;
37983;SDS011;64625;50.882;4.376;2023-06-22T08:58:22;22.95;;;13.73;;
37983;SDS011;64625;50.882;4.376;2023-06-22T09:00:49;17.60;;;13.57;;
37983;SDS011;64625;50.882;4.376;2023-06-22T09:03:16;20.88;;;13.98;;
37983;SDS011;64625;50.882;4.376;2023-06-22T09:05:44;25.95;;;14.07;;
37983;SDS011;64625;50.882;4.376;2023-06-22T09:08:10;22.33;;;14.80;;
37983;SDS011;64625;50.882;4.376;2023-06-22T09:10:37;22.33;;;14.32;;
37983;SDS011;64625;50.882;4.376;2023-06-22T09:13:03;17.38;;;13.43;;
37983;SDS011;64625;50.882;4.376;2023-06-22T09:15:28;23.20;;;13.50;;
37983;SDS011;64625;50.882;4.376;2023-06-22T09:17:54;26.67;;;14.10;;
37983;SDS011;64625;50.882;4.376;2023-06-22T09:20:22;37.58;;;15.00;;
37983;SDS011;64625;50.882;4.376;2023-06-22T09:22:48;18.15;;;12.13;;
37983;SDS011;64625;50.882;4.376;2023-06-22T09:25:14;19.70;;;12.43;;
37983;SDS011;64625;50.882;4.376;2023-06-22T09:27:40;21.23;;;12.70;;
37983;SDS011;64625;50.882;4.376;2023-06-22T09:30:06;27.52;;;13.52;;
37983;SDS011;64625;50.882;4.376;2023-06-22T09:32:32;19.50;;;12.48;;
37983;SDS011;64625;50.882;4.376;2023-06-22T09:34:58;24.27;;;14.60;;
37983;SDS011;64625;50.882;4.376;2023-06-22T09:37:27;22.52;;;14.07;;
37983;SDS011;64625;50.882;4.376;2023-06-22T09:39:53;21.45;;;14.50;;
37983;SDS011;64625;50.882;4.376;2023-06-22T09:42:19;28.63;;;14.68;;
37983;SDS011;64625;50.882;4.376;2023-06-22T09:44:46;23.17;;;14.30;;
37983;SDS011;64625;50.882;4.376;2023-06-22T09:47:11;23.20;;;16.45;;
37983;SDS011;64625;50.882;4.376;2023-06-22T09:49:37;37.25;;;16.08;;
37983;SDS011;64625;50.882;4.376;2023-06-22T09:52:03;36.88;;;17.42;;
37983;SDS011;64625;50.882;4.376;2023-06-22T09:54:31;28.80;;;16.88;;
37983;SDS011;64625;50.882;4.376;2023-06-22T09:56:58;20.52;;;15.25;;
37983;SDS011;64625;50.882;4.376;2023-06-22T09:59:24;30.80;;;15.55;;
37983;SDS011;64625;50.882;4.376;2023-06-22T10:01:50;30.15;;;15.48;;
37983;SDS011;64625;50.882;4.376;2023-06-22T10:04:16;37.65;;;15.38;;
37983;SDS011;64625;50.882;4.376;2023-06-22T10:06:42;31.95;;;14.50;;
37983;SDS011;64625;50.882;4.376;2023-06-22T10:09:08;17.58;;;13.73;;
37983;SDS011;64625;50.882;4.376;2023-06-22T10:11:34;26.42;;;17.10;;
37983;SDS011;64625;50.882;4.376;2023-06-22T10:14:01;41.17;;;20.33;;
37983;SDS011;64625;50.882;4.376;2023-06-22T10:16:32;31.13;;;16.70;;
37983;SDS011;64625;50.882;4.376;2023-06-22T10:18:58;42.67;;;21.65;;
37983;SDS011;64625;50.882;4.376;2023-06-22T10:21:24;36.22;;;20.05;;
37983;SDS011;64625;50.882;4.376;2023-06-22T10:23:52;30.13;;;19.67;;
37983;SDS011;64625;50.882;4.376;2023-06-22T10:26:18;32.15;;;20.00;;
37983;SDS011;64625;50.882;4.376;2023-06-22T10:28:44;52.42;;;20.95;;
37983;SDS011;64625;50.882;4.376;2023-06-22T10:31:09;35.35;;;19.25;;
37983;SDS011;64625;50.882;4.376;2023-06-22T10:33:35;33.15;;;20.83;;
37983;SDS011;64625;50.882;4.376;2023-06-22T10:36:01;33.83;;;22.30;;
37983;SDS011;64625;50.882;4.376;2023-06-22T10:38:27;36.53;;;22.83;;
37983;SDS011;64625;50.882;4.376;2023-06-22T10:40:53;39.80;;;24.90;;
37983;SDS011;64625;50.882;4.376;2023-06-22T10:43:18;43.05;;;26.15;;
37983;SDS011;64625;50.882;4.376;2023-06-22T10:45:44;40.30;;;27.58;;
37983;SDS011;64625;50.882;4.376;2023-06-22T10:48:11;36.55;;;26.67;;
37983;SDS011;64625;50.882;4.376;2023-06-22T10:50:36;39.63;;;27.83;;
37983;SDS011;64625;50.882;4.376;2023-06-22T10:53:02;49.40;;;26.85;;
37983;SDS011;64625;50.882;4.376;2023-06-22T10:55:28;44.20;;;28.67;;
37983;SDS011;64625;50.882;4.376;2023-06-22T10:57:54;42.25;;;28.90;;
37983;SDS011;64625;50.882;4.376;2023-06-22T11:00:20;45.90;;;28.00;;
37983;SDS011;64625;50.882;4.376;2023-06-22T11:02:47;48.20;;;29.48;;
37983;SDS011;64625;50.882;4.376;2023-06-22T11:05:13;54.47;;;33.42;;
37983;SDS011;64625;50.882;4.376;2023-06-22T11:07:42;66.75;;;35.67;;
37983;SDS011;64625;50.882;4.376;2023-06-22T11:10:09;57.75;;;33.63;;
37983;SDS011;64625;50.882;4.376;2023-06-22T11:12:36;57.35;;;35.95;;
37983;SDS011;64625;50.882;4.376;2023-06-22T11:15:02;61.65;;;35.55;;
37983;SDS011;64625;50.882;4.376;2023-06-22T11:17:28;62.55;;;35.60;;
37983;SDS011;64625;50.882;4.376;2023-06-22T11:19:54;61.15;;;35.80;;
37983;SDS011;64625;50.882;4.376;2023-06-22T11:22:19;60.47;;;33.72;;
37983;SDS011;64625;50.882;4.376;2023-06-22T11:24:45;56.58;;;34.95;;
37983;SDS011;64625;50.882;4.376;2023-06-22T11:27:11;54.40;;;33.08;;
37983;SDS011;64625;50.882;4.376;2023-06-22T11:29:37;47.72;;;29.23;;
37983;SDS011;64625;50.882;4.376;2023-06-22T11:32:05;52.80;;;30.27;;
37983;SDS011;64625;50.882;4.376;2023-06-22T11:34:32;41.88;;;27.77;;
37983;SDS011;64625;50.882;4.376;2023-06-22T11:36:58;40.28;;;25.05;;
37983;SDS011;64625;50.882;4.376;2023-06-22T11:39:27;50.67;;;30.23;;
37983;SDS011;64625;50.882;4.376;2023-06-22T11:41:53;40.28;;;27.30;;
37983;SDS011;64625;50.882;4.376;2023-06-22T11:44:19;47.15;;;29.77;;
37983;SDS011;64625;50.882;4.376;2023-06-22T11:46:44;45.45;;;29.13;;
37983;SDS011;64625;50.882;4.376;2023-06-22T11:49:11;48.72;;;29.17;;
37983;SDS011;64625;50.882;4.376;2023-06-22T11:51:37;48.47;;;29.88;;
37983;SDS011;64625;50.882;4.376;2023-06-22T11:54:03;42.65;;;29.63;;
37983;SDS011;64625;50.882;4.376;2023-06-22T11:56:29;49.65;;;31.60;;
37983;SDS011;64625;50.882;4.376;2023-06-22T11:58:55;54.50;;;31.63;;
37983;SDS011;64625;50.882;4.376;2023-06-22T12:01:21;47.50;;;30.50;;
37983;SDS011;64625;50.882;4.376;2023-06-22T12:03:47;46.00;;;31.00;;
37983;SDS011;64625;50.882;4.376;2023-06-22T12:06:13;46.22;;;31.55;;
37983;SDS011;64625;50.882;4.376;2023-06-22T12:08:39;56.10;;;34.90;;
37983;SDS011;64625;50.882;4.376;2023-06-22T12:11:06;57.63;;;35.95;;
37983;SDS011;64625;50.882;4.376;2023-06-22T12:13:32;59.08;;;34.90;;
37983;SDS011;64625;50.882;4.376;2023-06-22T12:15:58;57.90;;;33.75;;
37983;SDS011;64625;50.882;4.376;2023-06-22T12:18:24;58.00;;;32.75;;
37983;SDS011;64625;50.882;4.376;2023-06-22T12:20:50;49.42;;;32.70;;
37983;SDS011;64625;50.882;4.376;2023-06-22T12:23:15;58.38;;;35.15;;
37983;SDS011;64625;50.882;4.376;2023-06-22T12:25:41;49.15;;;33.45;;
37983;SDS011;64625;50.882;4.376;2023-06-22T12:28:07;53.85;;;34.33;;
37983;SDS011;64625;50.882;4.376;2023-06-22T12:30:33;55.10;;;35.15;;
37983;SDS011;64625;50.882;4.376;2023-06-22T12:32:59;56.40;;;33.75;;
37983;SDS011;64625;50.882;4.376;2023-06-22T12:35:25;51.28;;;32.13;;
37983;SDS011;64625;50.882;4.376;2023-06-22T12:37:51;56.60;;;32.63;;
37983;SDS011;64625;50.882;4.376;2023-06-22T12:40:17;49.88;;;33.25;;
37983;SDS011;64625;50.882;4.376;2023-06-22T12:42:44;51.70;;;33.10;;
37983;SDS011;64625;50.882;4.376;2023-06-22T12:45:10;59.90;;;33.92;;
37983;SDS011;64625;50.882;4.376;2023-06-22T12:47:36;55.22;;;36.42;;
37983;SDS011;64625;50.882;4.376;2023-06-22T12:50:02;55.03;;;34.97;;
37983;SDS011;64625;50.882;4.376;2023-06-22T12:52:30;63.08;;;38.60;;
37983;SDS011;64625;50.882;4.376;2023-06-22T12:54:57;75.00;;;39.15;;
37983;SDS011;64625;50.882;4.376;2023-06-22T12:57:23;73.40;;;39.97;;
37983;SDS011;64625;50.882;4.376;2023-06-22T12:59:49;70.20;;;39.28;;
37983;SDS011;64625;50.882;4.376;2023-06-22T13:02:15;70.05;;;40.20;;
37983;SDS011;64625;50.882;4.376;2023-06-22T13:04:41;81.05;;;45.35;;
37983;SDS011;64625;50.882;4.376;2023-06-22T13:07:08;87.07;;;44.92;;
37983;SDS011;64625;50.882;4.376;2023-06-22T13:09:35;76.75;;;41.97;;
37983;SDS011;64625;50.882;4.376;2023-06-22T13:12:01;75.28;;;42.20;;
37983;SDS011;64625;50.882;4.376;2023-06-22T13:14:27;82.40;;;45.20;;
37983;SDS011;64625;50.882;4.376;2023-06-22T13:16:53;69.43;;;39.78;;
37983;SDS011;64625;50.882;4.376;2023-06-22T13:19:19;83.20;;;46.38;;
37983;SDS011;64625;50.882;4.376;2023-06-22T13:21:45;79.40;;;42.97;;
37983;SDS011;64625;50.882;4.376;2023-06-22T13:24:12;88.38;;;48.13;;
37983;SDS011;64625;50.882;4.376;2023-06-22T13:26:41;80.90;;;43.70;;
37983;SDS011;64625;50.882;4.376;2023-06-22T13:29:07;71.55;;;42.75;;
37983;SDS011;64625;50.882;4.376;2023-06-22T13:31:32;75.68;;;42.05;;
37983;SDS011;64625;50.882;4.376;2023-06-22T13:33:58;82.03;;;41.10;;
37983;SDS011;64625;50.882;4.376;2023-06-22T13:36:24;71.57;;;42.53;;
37983;SDS011;64625;50.882;4.376;2023-06-22T13:38:50;73.35;;;42.95;;
37983;SDS011;64625;50.882;4.376;2023-06-22T13:41:16;67.93;;;41.42;;
37983;SDS011;64625;50.882;4.376;2023-06-22T13:43:42;70.25;;;42.30;;
37983;SDS011;64625;50.882;4.376;2023-06-22T13:46:08;82.35;;;39.67;;
37983;SDS011;64625;50.882;4.376;2023-06-22T13:48:33;76.20;;;38.90;;
37983;SDS011;64625;50.882;4.376;2023-06-22T13:50:59;84.05;;;40.40;;
37983;SDS011;64625;50.882;4.376;2023-06-22T13:53:25;88.70;;;39.95;;
37983;SDS011;64625;50.882;4.376;2023-06-22T13:55:51;80.13;;;43.20;;
37983;SDS011;64625;50.882;4.376;2023-06-22T13:58:17;76.68;;;38.05;;
37983;SDS011;64625;50.882;4.376;2023-06-22T14:00:45;76.75;;;37.95;;
37983;SDS011;64625;50.882;4.376;2023-06-22T14:03:11;74.15;;;39.28;;
37983;SDS011;64625;50.882;4.376;2023-06-22T14:05:37;76.72;;;36.90;;
37983;SDS011;64625;50.882;4.376;2023-06-22T14:08:03;74.22;;;38.17;;
37983;SDS011;64625;50.882;4.376;2023-06-22T14:10:29;35.45;;;21.23;;
37983;SDS011;64625;50.882;4.376;2023-06-22T14:12:54;0.47;;;0.47;;
37983;SDS011;64625;50.882;4.376;2023-06-22T14:15:20;0.32;;;0.32;;
37983;SDS011;64625;50.882;4.376;2023-06-22T14:17:46;1.02;;;0.70;;
37983;SDS011;64625;50.882;4.376;2023-06-22T14:20:12;0.75;;;0.60;;
37983;SDS011;64625;50.882;4.376;2023-06-22T14:22:38;0.30;;;0.30;;
37983;SDS011;64625;50.882;4.376;2023-06-22T14:25:05;0.43;;;0.43;;
37983;SDS011;64625;50.882;4.376;2023-06-22T14:27:31;0.30;;;0.30;;
37983;SDS011;64625;50.882;4.376;2023-06-22T14:29:57;0.30;;;0.30;;
37983;SDS011;64625;50.882;4.376;2023-06-22T14:32:23;0.20;;;0.20;;
37983;SDS011;64625;50.882;4.376;2023-06-22T14:34:50;0.30;;;0.30;;